RUN weather

Roland Garros Airport
St Denis, RĂ©union

Public forecast

Using degrees Celsius for public forecast. Weather courtesy of forecast.io.

METAR (pilot weather report)

Retrieved 2019/05/24 07:30 UTC (0 seconds ago):

FMEE 240730Z AUTO 31011KT 9999 FEW018/// BKN029/// BKN035/// ///TCU 28/23 Q1016 BECMG SCT030 BKN050

TAF (pilot weather forecast)

Retrieved 2019/05/24 06:00 UTC (1 hour ago):

TAF FMEE 240500Z 2406/2512 34010KT 9999 SCT030 BKN050 BECMG 2413/2415 18005KT BECMG 2506/2508 12010KT